KCOF/COF METAR and TAF weather

Enter ICAO airport designator
Station Type Date Time Source
KCOF METAR 2019/02/23 01:56 UTC NOAA

KCOF 230156Z AUTO 15008KT 10SM CLR 22/22 A3017 RMK AO2 SLPNO T02160216 $


Station Type Date Time Source
KCOF Decoded METAR 2019/02/23 01:56 UTC NOAA

Cocoa / Patrick Air Force Base, FL, United States (KCOF) 28-14N 080-36W 3M
Feb 22, 2019 - 08:56 PM EST / 2019.02.23 0156 UTC
Wind: from the SSE (150 degrees) at 9 MPH (8 KT):0
Visibility: 10 mile(s):0
Sky conditions: clear
Temperature: 70.9 F (21.6 C)
Dew Point: 70.9 F (21.6 C)
Relative Humidity: 100%
Pressure (altimeter): 30.17 in. Hg (1021 hPa)
ob: KCOF 230156Z AUTO 15008KT 10SM CLR 22/22 A3017 RMK AO2 SLPNO T02160216
cycle: 2

Station Type Date Time Source
KCOF TAF 2019/02/23 03:14 UTC NOAA

TAF KCOF 230300Z 2303/2409 VRB06KT 9999 VCSH SCT020 BKN030 QNH3012INS
TEMPO 2309/2313 4800 BR
BECMG 2313/2314 15008KT 9999 VCSH SCT015 BKN035 QNH3011INS
BECMG 2317/2318 15010KT 9999 VCSH SCT025 BKN050 QNH3008INS
BECMG 2407/2408 19008KT 9999 NSW SCT015 SCT065 QNH3006INS TX26/2319Z TN20/2309Z LAST NO
AMDS AFT 2305 NEXT 2311


Example: see airport list